Time;durP1;ratioP1;P1;durP2;ratioP2;P2;SDS_P1;SDS_P2;PMS_P1;PMS_P2;Temp;Humidity;BMP_temperature;BMP_pressure;BME280_temperature;BME280_humidity;BME280_pressure;Samples;Min_cycle;Max_cycle;Signal;HPM_P1;HPM_P2
2022/02/08 00:01:19;;;;;;;5.40;2.40;;;5.70;1.00;;;;;;5134267;27;20438;-60
2022/02/08 00:03:45;;;;;;;4.23;1.67;;;5.70;1.00;;;;;;5134098;27;20519;-61
2022/02/08 00:06:31;;;;;;;8.23;1.73;;;5.70;1.00;;;;;;5135731;27;20470;-61
2022/02/08 00:08:57;;;;;;;2.20;1.60;;;;;;;;;;5132313;27;20631;-61
2022/02/08 00:11:23;;;;;;;5.60;2.07;;;5.70;1.00;;;;;;5129147;27;20446;-61
2022/02/08 00:13:48;;;;;;;8.50;3.07;;;5.70;1.00;;;;;;5127952;27;20991;-60
2022/02/08 00:16:14;;;;;;;6.63;1.90;;;5.70;1.00;;;;;;5126632;27;20250;-62
2022/02/08 00:18:40;;;;;;;7.00;2.73;;;;;;;;;;5131569;27;20231;-61
2022/02/08 00:21:06;;;;;;;5.40;2.10;;;5.80;1.00;;;;;;5124170;27;20267;-60
2022/02/08 00:23:31;;;;;;;7.17;2.13;;;5.80;1.00;;;;;;5126160;27;20991;-61
2022/02/08 00:25:57;;;;;;;8.03;2.33;;;5.90;1.00;;;;;;5131517;27;20212;-61
2022/02/08 00:28:22;;;;;;;7.03;2.70;;;5.90;1.00;;;;;;5130251;27;20184;-61
2022/02/08 00:30:48;;;;;;;8.23;2.10;;;5.90;1.00;;;;;;5131025;27;20201;-61
2022/02/08 00:33:14;;;;;;;3.83;1.80;;;5.90;1.00;;;;;;5125919;27;20194;-61
2022/02/08 00:35:39;;;;;;;7.37;2.33;;;6.00;1.00;;;;;;5130503;27;20213;-61
2022/02/08 00:38:05;;;;;;;7.07;2.77;;;6.00;1.00;;;;;;5125382;27;20689;-61
2022/02/08 00:40:31;;;;;;;4.97;2.10;;;;;;;;;;5130703;27;20619;-60
2022/02/08 00:42:58;;;;;;;5.70;1.37;;;6.00;1.00;;;;;;5132847;27;20177;-61
2022/02/08 00:45:50;;;;;;;5.93;1.97;;;6.00;1.00;;;;;;5130291;27;20513;-61
2022/02/08 00:48:28;;;;;;;3.93;1.60;;;6.00;1.00;;;;;;5125967;27;20440;-61
2022/02/08 00:50:54;;;;;;;12.17;2.40;;;6.00;1.00;;;;;;5128377;27;20473;-61
2022/02/08 00:53:20;;;;;;;8.47;2.70;;;6.00;1.00;;;;;;5128161;27;20447;-61
2022/02/08 00:55:46;;;;;;;5.50;1.77;;;6.10;1.00;;;;;;5131652;27;20705;-61
2022/02/08 00:58:11;;;;;;;5.33;2.73;;;6.10;1.00;;;;;;5128653;27;20269;-60
2022/02/08 01:00:38;;;;;;;8.20;2.53;;;6.10;1.00;;;;;;5131676;27;20568;-60
2022/02/08 01:03:05;;;;;;;10.13;2.50;;;6.20;1.00;;;;;;5126977;27;20185;-60
2022/02/08 01:05:30;;;;;;;10.20;3.20;;;6.20;1.00;;;;;;5129890;27;20443;-61
2022/02/08 01:07:56;;;;;;;8.53;2.83;;;6.00;1.00;;;;;;5128619;27;20461;-60
2022/02/08 01:10:24;;;;;;;7.90;3.67;;;6.10;1.00;;;;;;5131370;27;20193;-61
2022/02/08 01:12:50;;;;;;;9.13;3.30;;;5.90;1.00;;;;;;5131791;27;20618;-60
2022/02/08 01:15:17;;;;;;;10.53;4.10;;;5.80;1.00;;;;;;5124086;27;20545;-61
2022/02/08 01:17:46;;;;;;;9.47;3.57;;;5.60;1.00;;;;;;5126945;27;20955;-62
2022/02/08 01:20:17;;;;;;;5.90;3.83;;;5.70;1.00;;;;;;5129018;27;20443;-60
2022/02/08 01:22:43;;;;;;;10.53;3.30;;;;;;;;;;5130090;27;20970;-60
2022/02/08 01:25:17;;;;;;;5.67;3.90;;;5.60;1.00;;;;;;5129710;27;20413;-60
2022/02/08 01:27:49;;;;;;;12.23;3.53;;;5.60;1.00;;;;;;5128480;27;20458;-60
2022/02/08 01:30:28;;;;;;;7.30;3.57;;;;;;;;;;5131004;27;20423;-60
2022/02/08 01:35:30;;;;;;;8.73;3.67;;;5.60;1.00;;;;;;5125292;27;20493;-60
2022/02/08 01:38:03;;;;;;;10.70;3.83;;;5.50;1.00;;;;;;5126715;27;20512;-61
2022/02/08 01:40:51;;;;;;;9.07;4.00;;;5.60;1.00;;;;;;5128058;27;20932;-60
2022/02/08 01:51:08;;;;;;;8.83;4.17;;;5.50;1.00;;;;;;5127965;27;20187;-61
2022/02/08 01:53:34;;;;;;;7.50;3.93;;;5.50;1.00;;;;;;5129156;27;20442;-61
2022/02/08 01:56:01;;;;;;;9.47;3.73;;;5.60;1.00;;;;;;5126005;27;20483;-60
2022/02/08 01:58:27;;;;;;;11.70;4.40;;;5.60;1.00;;;;;;5130686;27;20181;-61
2022/02/08 02:00:53;;;;;;;11.80;3.60;;;5.70;1.00;;;;;;5128257;27;20427;-61
2022/02/08 02:03:19;;;;;;;7.73;4.03;;;5.60;1.00;;;;;;5126827;27;20800;-61
2022/02/08 02:05:45;;;;;;;7.70;4.37;;;5.70;1.00;;;;;;5129019;27;20461;-61
2022/02/08 02:08:10;;;;;;;6.23;3.00;;;5.70;1.00;;;;;;5128680;27;20185;-61
2022/02/08 02:10:37;;;;;;;11.50;4.50;;;5.70;1.00;;;;;;5125676;27;20263;-61
2022/02/08 02:13:10;;;;;;;11.63;5.30;;;5.70;1.00;;;;;;5125858;27;20531;-61
2022/02/08 02:15:36;;;;;;;8.00;3.37;;;5.70;1.00;;;;;;5122888;27;20471;-60
2022/02/08 02:18:01;;;;;;;12.57;4.00;;;5.70;1.00;;;;;;5125887;27;20446;-60
2022/02/08 02:20:29;;;;;;;10.30;3.63;;;5.80;1.00;;;;;;5119939;27;20754;-61
2022/02/08 02:22:54;;;;;;;5.93;3.93;;;6.20;1.00;;;;;;5117196;27;20272;-61
2022/02/08 02:25:29;;;;;;;6.87;4.00;;;5.80;1.00;;;;;;5125168;27;20584;-60
2022/02/08 02:27:57;;;;;;;5.67;4.47;;;5.90;1.00;;;;;;5130185;27;20529;-61
2022/02/08 02:30:25;;;;;;;12.13;4.80;;;5.80;1.00;;;;;;5126310;27;20553;-61
2022/02/08 02:32:52;;;;;;;7.37;4.87;;;5.80;1.00;;;;;;5115821;27;20499;-61
2022/02/08 02:35:18;;;;;;;9.03;3.63;;;5.80;1.00;;;;;;5129705;27;20442;-61
2022/02/08 02:37:43;;;;;;;9.43;4.20;;;5.80;1.00;;;;;;5127718;27;20450;-61
2022/02/08 02:40:12;;;;;;;6.17;4.07;;;5.80;1.00;;;;;;5128858;27;20454;-62
2022/02/08 02:42:37;;;;;;;9.17;4.40;;;5.70;1.00;;;;;;5124690;27;20259;-61
2022/02/08 02:45:04;;;;;;;8.03;4.47;;;5.60;1.00;;;;;;5128964;27;20446;-60
2022/02/08 02:47:32;;;;;;;6.50;3.77;;;5.50;1.00;;;;;;5122742;27;20641;-61
2022/02/08 02:49:57;;;;;;;12.13;4.70;;;5.50;1.00;;;;;;5129636;27;20793;-61
2022/02/08 02:52:23;;;;;;;13.27;4.87;;;5.50;1.00;;;;;;5128175;27;20461;-61
2022/02/08 02:54:48;;;;;;;7.77;4.60;;;5.50;1.00;;;;;;5128439;27;20938;-60
2022/02/08 02:57:15;;;;;;;10.70;5.17;;;5.40;1.00;;;;;;5126919;28;20669;-61
2022/02/08 02:59:43;;;;;;;17.03;4.77;;;5.40;1.00;;;;;;5129395;27;20572;-61
2022/02/08 03:02:34;;;;;;;9.00;5.30;;;5.40;1.00;;;;;;5125753;28;20474;-60
2022/02/08 03:05:17;;;;;;;5.50;4.30;;;5.40;1.00;;;;;;5109809;28;20458;-60
2022/02/08 03:18:41;;;;;;;7.33;4.00;;;5.20;1.00;;;;;;5125504;27;20434;-61
2022/02/08 03:21:09;;;;;;;6.47;4.97;;;5.20;1.00;;;;;;5124678;27;20451;-61
2022/02/08 03:23:35;;;;;;;7.60;4.80;;;5.20;1.00;;;;;;5120353;27;20443;-61
2022/02/08 03:26:01;;;;;;;9.33;4.90;;;5.10;1.00;;;;;;5128485;28;20979;-60
2022/02/08 03:28:27;;;;;;;10.60;4.90;;;5.20;1.00;;;;;;5128540;28;20485;-61
2022/02/08 03:30:53;;;;;;;5.87;4.30;;;5.20;1.00;;;;;;5127474;28;20472;-60
2022/02/08 03:33:20;;;;;;;8.03;4.47;;;5.10;1.00;;;;;;5129454;28;20177;-61
2022/02/08 03:35:46;;;;;;;8.03;5.27;;;5.00;1.00;;;;;;5124253;27;20471;-61
2022/02/08 03:38:15;;;;;;;9.17;4.97;;;5.00;1.00;;;;;;5126004;28;21186;-61
2022/02/08 03:40:46;;;;;;;7.90;3.93;;;5.00;1.00;;;;;;5124618;27;20432;-61
2022/02/08 03:45:39;;;;;;;7.93;4.70;;;5.20;1.00;;;;;;5128125;27;20603;-60
2022/02/08 03:48:05;;;;;;;11.60;4.60;;;5.30;1.00;;;;;;5130233;27;20438;-60
2022/02/08 03:50:31;;;;;;;6.40;4.30;;;5.20;1.00;;;;;;5131172;27;20447;-61
2022/02/08 03:52:56;;;;;;;6.30;3.87;;;5.50;1.00;;;;;;5125640;27;20450;-60
2022/02/08 03:55:22;;;;;;;6.97;4.50;;;5.60;1.00;;;;;;5130490;27;20438;-61
2022/02/08 03:57:47;;;;;;;6.23;4.67;;;5.70;1.00;;;;;;5131479;27;20181;-60
2022/02/08 04:00:15;;;;;;;10.20;5.60;;;;;;;;;;5130200;27;20185;-61
2022/02/08 04:02:45;;;;;;;9.10;4.87;;;5.60;1.00;;;;;;5130857;27;20166;-60
2022/02/08 04:08:09;;;;;;;6.30;5.43;;;5.50;1.00;;;;;;5114596;27;22235;-60
2022/02/08 04:10:35;;;;;;;7.33;4.57;;;5.60;1.00;;;;;;5128577;27;20427;-61
2022/02/08 04:15:41;;;;;;;10.90;5.07;;;5.60;1.00;;;;;;5127998;27;22380;-60
2022/02/08 04:18:36;;;;;;;8.97;5.40;;;5.60;1.00;;;;;;5127679;27;20418;-60
2022/02/08 04:42:37;;;;;;;8.07;4.67;;;5.70;1.00;;;;;;5128740;27;20476;-61
2022/02/08 04:45:30;;;;;;;8.93;4.73;;;5.70;1.00;;;;;;5111487;27;20450;-60
2022/02/08 04:50:24;;;;;;;7.30;4.27;;;5.80;1.00;;;;;;5126780;27;20501;-60
2022/02/08 04:52:51;;;;;;;7.20;4.13;;;5.90;1.00;;;;;;5129712;27;20509;-60
2022/02/08 04:58:05;;;;;;;8.07;4.07;;;;;;;;;;5130344;27;20447;-60
2022/02/08 05:00:40;;;;;;;11.93;4.47;;;6.00;1.00;;;;;;5130621;27;20923;-60
2022/02/08 05:36:02;;;;;;;5.17;3.97;;;6.10;1.00;;;;;;5126767;27;20447;-60
2022/02/08 05:48:51;;;;;;;8.83;3.97;;;6.20;1.00;;;;;;5130087;27;20536;-60
2022/02/08 05:51:21;;;;;;;7.10;4.00;;;6.20;1.00;;;;;;5124542;27;20442;-60
2022/02/08 05:53:47;;;;;;;8.67;4.67;;;6.30;1.00;;;;;;5126254;27;20414;-60
2022/02/08 05:56:14;;;;;;;8.43;4.20;;;6.30;1.00;;;;;;5128253;27;20481;-61
2022/02/08 05:58:43;;;;;;;7.90;3.47;;;6.40;1.00;;;;;;5107937;27;20516;-61
2022/02/08 06:01:09;;;;;;;5.03;3.47;;;6.30;1.00;;;;;;5126454;27;20430;-61
2022/02/08 06:03:34;;;;;;;7.60;3.40;;;6.40;1.00;;;;;;5127952;27;20942;-61
2022/02/08 06:06:00;;;;;;;9.47;4.20;;;6.50;1.00;;;;;;5131040;27;20450;-61
2022/02/08 06:08:26;;;;;;;9.73;3.93;;;6.50;1.00;;;;;;5126933;27;20185;-61
2022/02/08 06:11:04;;;;;;;9.70;3.10;;;6.60;1.00;;;;;;5123171;27;20570;-61
2022/02/08 06:13:30;;;;;;;3.80;3.07;;;6.70;1.00;;;;;;5111832;27;20173;-61
2022/02/08 06:16:02;;;;;;;6.80;3.20;;;6.70;1.00;;;;;;5124750;27;20467;-60
2022/02/08 06:18:29;;;;;;;4.93;2.70;;;6.70;1.00;;;;;;5127765;27;20931;-61
2022/02/08 06:20:55;;;;;;;6.23;3.00;;;6.60;1.00;;;;;;5115167;27;20921;-60
2022/02/08 06:23:20;;;;;;;9.77;3.60;;;6.50;1.00;;;;;;5120053;27;20474;-61
2022/02/08 06:25:46;;;;;;;8.87;3.60;;;6.50;1.00;;;;;;5125483;27;20181;-61
2022/02/08 06:28:13;;;;;;;4.53;2.90;;;;;;;;;;5109802;27;20189;-61
2022/02/08 06:30:39;;;;;;;7.87;2.83;;;6.60;1.00;;;;;;5128215;27;20216;-61
2022/02/08 06:33:05;;;;;;;8.97;3.03;;;6.70;1.00;;;;;;5124582;27;20471;-60
2022/02/08 06:35:33;;;;;;;7.40;3.13;;;6.70;1.00;;;;;;5128592;27;20193;-62
2022/02/08 06:38:00;;;;;;;6.50;2.83;;;6.70;1.00;;;;;;5120149;27;20466;-61
2022/02/08 06:40:26;;;;;;;5.27;3.17;;;6.80;1.00;;;;;;5127509;27;20447;-61
2022/02/08 06:42:56;;;;;;;8.70;2.50;;;6.80;1.00;;;;;;5129418;27;20450;-60
2022/02/08 06:45:22;;;;;;;3.13;2.30;;;6.90;1.00;;;;;;5128770;27;20675;-61
2022/02/08 06:47:51;;;;;;;9.90;3.00;;;6.80;1.00;;;;;;5126538;27;20861;-61
2022/02/08 06:50:17;;;;;;;8.63;3.57;;;6.70;1.00;;;;;;5130237;27;20219;-61
2022/02/08 06:52:42;;;;;;;6.67;2.67;;;;;;;;;;5125061;27;20939;-61
2022/02/08 06:55:09;;;;;;;6.10;2.30;;;6.80;1.00;;;;;;5128592;27;20476;-61
2022/02/08 06:57:49;;;;;;;4.90;2.10;;;6.80;1.00;;;;;;5129084;27;20463;-60
2022/02/08 07:00:18;;;;;;;6.10;2.07;;;6.80;1.00;;;;;;5128309;28;20452;-60
2022/02/08 07:02:44;;;;;;;4.73;2.17;;;;;;;;;;5130045;28;20427;-61
2022/02/08 07:05:10;;;;;;;4.63;2.03;;;6.90;1.00;;;;;;5129465;27;20439;-61
2022/02/08 07:07:35;;;;;;;9.50;2.70;;;6.90;1.00;;;;;;5123640;28;21029;-61
2022/02/08 07:10:03;;;;;;;5.47;1.80;;;7.00;1.00;;;;;;5127143;28;20224;-60
2022/02/08 07:12:29;;;;;;;8.23;2.30;;;6.80;1.00;;;;;;5110347;28;20185;-61
2022/02/08 07:14:55;;;;;;;6.90;2.27;;;6.80;1.00;;;;;;5111410;28;20454;-61
2022/02/08 07:17:21;;;;;;;5.13;1.73;;;6.90;1.00;;;;;;5127929;28;20190;-60
2022/02/08 07:19:46;;;;;;;5.90;2.00;;;7.00;1.00;;;;;;5129483;27;20490;-61
2022/02/08 07:22:12;;;;;;;6.20;2.53;;;6.90;1.00;;;;;;5129329;27;20197;-60
2022/02/08 07:24:38;;;;;;;2.77;1.80;;;6.90;1.00;;;;;;5127398;27;20166;-61
2022/02/08 07:27:04;;;;;;;4.30;2.07;;;6.80;1.00;;;;;;5128662;27;20181;-61
2022/02/08 07:29:32;;;;;;;8.33;1.90;;;;;;;;;;5133198;27;20182;-61
2022/02/08 07:31:58;;;;;;;6.30;2.37;;;7.00;1.00;;;;;;5129214;27;20430;-61
2022/02/08 07:34:42;;;;;;;9.30;2.80;;;6.90;1.00;;;;;;5129384;27;20450;-61
2022/02/08 07:39:44;;;;;;;6.47;2.13;;;7.00;1.00;;;;;;5133824;27;20949;-61
2022/02/08 07:42:09;;;;;;;4.30;2.13;;;6.90;1.00;;;;;;5131476;27;20246;-61
2022/02/08 07:44:35;;;;;;;4.03;2.20;;;6.90;1.00;;;;;;5126333;27;20943;-61
2022/02/08 07:47:00;;;;;;;4.67;1.90;;;6.80;1.00;;;;;;5132029;27;20283;-61
2022/02/08 07:49:26;;;;;;;4.73;2.30;;;6.70;1.00;;;;;;5129551;27;20242;-61
2022/02/08 07:51:52;;;;;;;3.70;2.37;;;6.80;1.00;;;;;;5130465;27;20246;-60
2022/02/08 07:54:17;;;;;;;6.63;3.60;;;6.70;1.00;;;;;;5131826;27;20669;-61
2022/02/08 07:56:43;;;;;;;6.67;2.13;;;6.70;1.00;;;;;;5130687;27;20256;-61
2022/02/08 07:59:08;;;;;;;4.83;2.30;;;6.60;1.00;;;;;;5131181;27;20185;-60
2022/02/08 08:01:34;;;;;;;5.70;2.67;;;6.60;1.00;;;;;;5125710;27;20224;-61
2022/02/08 08:04:00;;;;;;;7.83;2.80;;;6.70;1.00;;;;;;5131899;27;20531;-60
2022/02/08 08:06:25;;;;;;;3.10;1.80;;;6.80;1.00;;;;;;5112198;27;20580;-61
2022/02/08 08:08:51;;;;;;;3.60;2.37;;;6.90;1.00;;;;;;5127768;27;20193;-61
2022/02/08 08:11:22;;;;;;;7.80;3.10;;;7.00;1.00;;;;;;5131076;27;20177;-61
2022/02/08 08:16:30;;;;;;;3.30;2.20;;;7.20;1.00;;;;;;5129758;27;20462;-62
2022/02/08 08:19:00;;;;;;;5.57;2.33;;;;;;;;;;5131177;27;20815;-61
2022/02/08 08:21:26;;;;;;;5.80;2.50;;;7.20;1.00;;;;;;5131873;27;20480;-61
2022/02/08 08:23:52;;;;;;;5.27;2.67;;;7.20;1.00;;;;;;5128592;27;20451;-61
2022/02/08 08:26:19;;;;;;;3.90;2.53;;;7.30;1.00;;;;;;5132967;27;20441;-60
2022/02/08 08:28:44;;;;;;;8.83;2.10;;;7.40;1.00;;;;;;5125919;27;20794;-61
2022/02/08 08:31:10;;;;;;;3.83;2.10;;;7.40;1.00;;;;;;5132021;27;20431;-60
2022/02/08 08:37:06;;;;;;;4.13;1.80;;;7.50;1.00;;;;;;4980905;28;20372;-61
2022/02/08 08:39:39;;;;;;;9.37;1.97;;;7.50;1.00;;;;;;5127650;27;20454;-63
2022/02/08 08:53:12;;;;;;;4.20;2.43;;;7.80;1.00;;;;;;5115066;27;20572;-68
2022/02/08 08:55:38;;;;;;;4.33;2.20;;;7.90;1.00;;;;;;5127588;28;20445;-69
2022/02/08 08:58:03;;;;;;;5.23;2.33;;;7.90;1.00;;;;;;5117635;28;20472;-68
2022/02/08 09:00:29;;;;;;;2.83;1.47;;;7.80;1.00;;;;;;5113642;28;20631;-70
2022/02/08 09:02:54;;;;;;;3.90;1.90;;;7.80;1.00;;;;;;5101232;28;20178;-70
2022/02/08 09:05:21;;;;;;;3.60;1.80;;;7.80;1.00;;;;;;5128209;28;20178;-69
2022/02/08 09:07:47;;;;;;;5.23;1.90;;;;;;;;;;5120907;28;20212;-70
2022/02/08 09:10:17;;;;;;;8.53;2.10;;;7.80;1.00;;;;;;5120986;28;21033;-70
2022/02/08 09:21:16;;;;;;;3.17;1.80;;;7.70;1.00;;;;;;5041508;28;20463;-70
2022/02/08 09:26:32;;;;;;;4.33;1.70;;;8.00;1.00;;;;;;5101246;27;20410;-72
2022/02/08 09:29:04;;;;;;;5.77;1.97;;;;;;;;;;5106281;28;20431;-71
2022/02/08 09:31:32;;;;;;;4.13;2.03;;;;;;;;;;5121112;28;20470;-71
2022/02/08 09:33:58;;;;;;;3.97;1.87;;;;;;;;;;5120320;27;20439;-72
2022/02/08 09:36:25;;;;;;;4.83;2.10;;;7.70;1.00;;;;;;5103971;28;20469;-71
2022/02/08 09:38:52;;;;;;;4.73;1.37;;;7.60;1.00;;;;;;5118233;28;20427;-71
2022/02/08 09:41:21;;;;;;;2.63;1.80;;;7.80;1.00;;;;;;5123052;28;20487;-71
2022/02/08 09:43:48;;;;;;;5.37;1.93;;;7.90;1.00;;;;;;5110711;28;20447;-70
2022/02/08 09:46:17;;;;;;;3.87;2.10;;;7.90;1.00;;;;;;5105657;28;20774;-71
2022/02/08 09:48:57;;;;;;;1.70;1.60;;;;;;;;;;5124682;28;20422;-71
2022/02/08 09:51:24;;;;;;;3.73;2.20;;;7.90;1.00;;;;;;5089419;28;20912;-70
2022/02/08 09:53:56;;;;;;;4.40;2.00;;;7.90;1.00;;;;;;5062690;28;20894;-69
2022/02/08 09:56:24;;;;;;;3.37;1.60;;;7.80;1.00;;;;;;5072075;28;20444;-71
2022/02/08 09:58:50;;;;;;;4.47;1.70;;;8.00;1.00;;;;;;5063328;28;20839;-70
2022/02/08 10:01:22;;;;;;;3.50;1.87;;;8.20;1.00;;;;;;5061474;28;21036;-72
2022/02/08 10:03:58;;;;;;;4.13;2.07;;;8.20;1.00;;;;;;5066248;28;20502;-71
2022/02/08 10:06:28;;;;;;;5.77;2.13;;;8.10;1.00;;;;;;5058719;28;20448;-72
2022/02/08 10:09:02;;;;;;;6.10;2.20;;;8.00;1.00;;;;;;5057061;28;20484;-69
2022/02/08 10:11:39;;;;;;;7.17;3.67;;;;;;;;;;5057897;28;20446;-70
2022/02/08 10:14:19;;;;;;;5.23;2.30;;;;;;;;;;5057078;28;20477;-70
2022/02/08 10:22:14;;;;;;;9.17;2.40;;;;;;;;;;5070668;28;20566;-70
2022/02/08 10:24:50;;;;;;;4.47;2.17;;;8.50;1.00;;;;;;5063953;28;20525;-71
2022/02/08 10:27:48;;;;;;;3.20;1.67;;;8.50;1.00;;;;;;5066703;28;20437;-70
2022/02/08 10:38:47;;;;;;;2.87;1.63;;;8.40;1.00;;;;;;5054213;28;20483;-71
2022/02/08 10:41:18;;;;;;;3.07;1.77;;;8.50;1.00;;;;;;5056390;28;20458;-71
2022/02/08 10:44:02;;;;;;;3.30;1.90;;;8.50;1.00;;;;;;5050811;28;20443;-71
2022/02/08 10:46:28;;;;;;;3.50;1.57;;;8.60;1.00;;;;;;5065908;28;20478;-71
2022/02/08 10:49:09;;;;;;;4.07;1.70;;;8.50;1.00;;;;;;5060629;28;20465;-71
2022/02/08 10:51:50;;;;;;;2.17;1.50;;;8.50;1.00;;;;;;5065465;28;20567;-71
2022/02/08 10:54:23;;;;;;;5.77;2.10;;;;;;;;;;5101019;28;20444;-71
2022/02/08 10:56:56;;;;;;;7.00;2.80;;;8.50;1.00;;;;;;5092374;28;20765;-70
2022/02/08 10:59:29;;;;;;;2.33;1.93;;;;;;;;;;5100907;28;20444;-71
2022/02/08 11:04:57;;;;;;;3.47;1.80;;;;;;;;;;5096538;28;20409;-71
2022/02/08 11:08:23;;;;;;;2.83;1.47;;;8.60;1.00;;;;;;5104436;28;20450;-70
2022/02/08 11:10:44;;;;;;;1.90;1.63;;;8.60;1.00;;;;;;5089737;28;20446;-71
2022/02/08 11:26:35;;;;;;;4.70;1.90;;;8.80;1.00;;;;;;5103816;28;20849;-69
2022/02/08 11:29:19;;;;;;;1.70;1.60;;;8.80;1.00;;;;;;5086120;28;20924;-68
2022/02/08 11:31:51;;;;;;;2.87;2.47;;;;;;;;;;5094520;28;20804;-69
2022/02/08 11:41:20;;;;;;;2.30;1.60;;;8.90;1.00;;;;;;5096075;28;20964;-71
2022/02/08 11:51:56;;;;;;;2.50;1.70;;;9.20;1.00;;;;;;5097940;28;20521;-71
2022/02/08 11:54:36;;;;;;;7.13;3.70;;;;;;;;;;5104654;28;20440;-72
2022/02/08 12:03:12;;;;;;;3.70;2.03;;;;;;;;;;5099876;28;20464;-72
2022/02/08 12:07:34;;;;;;;2.00;1.50;;;9.80;1.00;;;;;;5094674;28;20547;-73
2022/02/08 12:10:14;;;;;;;4.33;1.37;;;9.80;1.00;;;;;;5108042;28;20865;-73
2022/02/08 12:13:02;;;;;;;2.00;1.17;;;9.70;1.00;;;;;;5092370;28;20434;-72
2022/02/08 12:32:01;;;;;;;2.83;1.30;;;9.70;1.00;;;;;;5102913;28;20440;-71
2022/02/08 12:54:05;;;;;;;1.60;1.17;;;9.60;1.00;;;;;;5100662;28;20455;-72
2022/02/08 14:19:45;;;;;;;1.13;0.87;;;;;;;;;;5115770;28;20451;-76
2022/02/08 14:29:58;;;;;;;1.47;1.37;;;9.30;1.00;;;;;;5106856;28;20788;-74
2022/02/08 14:32:40;;;;;;;1.30;1.00;;;9.50;1.00;;;;;;5107875;28;20550;-74
2022/02/08 14:49:16;;;;;;;1.57;0.90;;;;;;;;;;5107895;28;20503;-74
2022/02/08 15:10:19;;;;;;;4.30;1.70;;;9.60;1.00;;;;;;5108079;28;20816;-75
2022/02/08 15:12:51;;;;;;;1.63;1.50;;;9.50;1.00;;;;;;5104384;28;20197;-76
2022/02/08 15:18:02;;;;;;;4.33;2.20;;;;;;;;;;5098618;28;20499;-74
2022/02/08 15:20:28;;;;;;;1.63;1.50;;;9.60;1.00;;;;;;5107429;28;20535;-75
2022/02/08 15:22:58;;;;;;;3.13;1.73;;;;;;;;;;5111322;28;20468;-74
2022/02/08 15:25:25;;;;;;;3.03;1.40;;;;;;;;;;5091133;28;20447;-74
2022/02/08 15:27:51;;;;;;;1.80;1.70;;;;;;;;;;5102837;28;20418;-74
2022/02/08 15:30:17;;;;;;;2.33;1.80;;;;;;;;;;5108368;28;20441;-75
2022/02/08 15:32:43;;;;;;;3.00;1.90;;;9.50;1.00;;;;;;5106067;28;20501;-75
2022/02/08 15:35:09;;;;;;;2.27;1.70;;;;;;;;;;5098091;28;20783;-74
2022/02/08 15:37:35;;;;;;;3.63;1.77;;;;;;;;;;5100634;28;20221;-76
2022/02/08 15:40:04;;;;;;;2.47;2.27;;;9.40;1.00;;;;;;5101861;28;20872;-75
2022/02/08 15:42:31;;;;;;;1.57;1.47;;;9.40;1.00;;;;;;5105547;28;20521;-75
2022/02/08 15:45:07;;;;;;;1.50;1.40;;;9.50;1.00;;;;;;5103707;28;20729;-76
2022/02/08 15:47:33;;;;;;;2.17;1.67;;;9.50;1.00;;;;;;5110534;28;20434;-75
2022/02/08 15:50:06;;;;;;;1.77;1.40;;;;;;;;;;5083651;28;20519;-75
2022/02/08 15:53:27;;;;;;;2.60;1.67;;;9.60;1.00;;;;;;5101086;28;20218;-75
2022/02/08 16:01:02;;;;;;;4.10;1.60;;;9.60;1.00;;;;;;5106689;28;20439;-71
2022/02/08 16:14:06;;;;;;;3.27;1.97;;;;;;;;;;5101911;28;20444;-70
2022/02/08 16:17:26;;;;;;;4.43;2.17;;;9.50;1.00;;;;;;5078161;28;20541;-71
2022/02/08 16:19:34;;;;;;;2.77;1.70;;;9.60;1.00;;;;;;5096077;28;20789;-70
2022/02/08 16:22:27;;;;;;;2.53;2.33;;;;;;;;;;5092982;28;20467;-71
2022/02/08 16:30:45;;;;;;;3.20;1.97;;;9.50;1.00;;;;;;5093511;28;20484;-71
2022/02/08 16:49:23;;;;;;;4.73;2.73;;;;;;;;;;5082365;28;20515;-70
2022/02/08 16:54:28;;;;;;;5.80;2.87;;;9.60;1.00;;;;;;5098179;28;20835;-71
2022/02/08 16:59:34;;;;;;;2.50;2.13;;;9.60;1.00;;;;;;5107463;28;20935;-64
2022/02/08 17:02:05;;;;;;;3.40;3.10;;;;;;;;;;5109700;28;20531;-71
2022/02/08 17:04:32;;;;;;;3.50;2.53;;;9.70;1.00;;;;;;5091483;28;20468;-71
2022/02/08 17:06:58;;;;;;;6.50;2.53;;;;;;;;;;5077499;28;20436;-70
2022/02/08 17:12:10;;;;;;;2.33;2.13;;;9.60;1.00;;;;;;5102819;28;20803;-70
2022/02/08 17:38:22;;;;;;;3.87;2.90;;;9.40;1.00;;;;;;5108499;28;20500;-66
2022/02/08 17:47:41;;;;;;;4.63;3.97;;;9.30;1.00;;;;;;5106569;28;20437;-67
2022/02/08 17:50:09;;;;;;;5.37;3.33;;;9.30;1.00;;;;;;5113627;28;20538;-66
2022/02/08 17:52:37;;;;;;;4.27;3.33;;;9.40;1.00;;;;;;5109101;28;20449;-68
2022/02/08 17:55:05;;;;;;;5.30;3.60;;;9.30;1.00;;;;;;5101432;28;20435;-67
2022/02/08 17:57:31;;;;;;;5.93;3.57;;;9.30;1.00;;;;;;5110244;28;20395;-67
2022/02/08 17:59:57;;;;;;;4.97;3.80;;;9.30;1.00;;;;;;5089388;28;20493;-67
2022/02/08 18:02:23;;;;;;;5.00;3.30;;;9.30;1.00;;;;;;5109693;28;20589;-67
2022/02/08 18:04:50;;;;;;;4.93;4.43;;;;;;;;;;5110519;28;20438;-67
2022/02/08 18:07:19;;;;;;;4.30;3.90;;;9.30;1.00;;;;;;5110262;28;20414;-66
2022/02/08 18:09:47;;;;;;;4.50;3.43;;;9.30;1.00;;;;;;5111777;28;20860;-67
2022/02/08 18:12:12;;;;;;;5.67;4.33;;;9.30;1.00;;;;;;5099881;28;20451;-66
2022/02/08 18:14:41;;;;;;;4.23;3.83;;;9.40;1.00;;;;;;5106110;28;20444;-68
2022/02/08 18:17:17;;;;;;;4.70;3.80;;;9.40;1.00;;;;;;5102876;28;20198;-67
2022/02/08 18:19:51;;;;;;;4.33;3.90;;;;;;;;;;5103157;28;20471;-67
2022/02/08 19:05:33;;;;;;;4.30;3.90;;;9.30;1.00;;;;;;5095905;28;20399;-66
2022/02/08 19:07:21;;;;;;;6.23;3.77;;;9.20;1.00;;;;;;5095373;28;20836;-66
2022/02/08 19:10:07;;;;;;;6.33;4.20;;;;;;;;;;5105520;28;20428;-66
2022/02/08 19:12:38;;;;;;;4.97;3.63;;;9.00;1.00;;;;;;5107060;28;20436;-66
2022/02/08 19:20:13;;;;;;;5.20;4.40;;;9.10;1.00;;;;;;5106798;28;20581;-64
2022/02/08 19:22:40;;;;;;;5.67;4.00;;;9.20;1.00;;;;;;5098190;28;20463;-66
2022/02/08 19:25:06;;;;;;;5.50;3.60;;;9.20;1.00;;;;;;5094873;28;20529;-66
2022/02/08 19:27:32;;;;;;;5.27;4.17;;;9.20;1.00;;;;;;5092156;28;20433;-66
2022/02/08 19:29:58;;;;;;;4.30;3.90;;;9.10;1.00;;;;;;5104901;28;20447;-65
2022/02/08 19:32:23;;;;;;;5.17;4.63;;;9.10;1.00;;;;;;5104036;28;20445;-66
2022/02/08 19:34:49;;;;;;;7.33;5.50;;;9.20;1.00;;;;;;5099859;28;20194;-67
2022/02/08 19:37:17;;;;;;;5.13;4.33;;;9.30;1.00;;;;;;5097114;28;20578;-65
2022/02/08 19:39:44;;;;;;;4.80;4.40;;;9.20;1.00;;;;;;5108153;28;20419;-66
2022/02/08 19:42:12;;;;;;;7.60;6.30;;;9.30;1.00;;;;;;5093455;28;20464;-65
2022/02/08 19:44:38;;;;;;;5.13;4.73;;;;;;;;;;5092098;28;20940;-65
2022/02/08 19:47:07;;;;;;;5.43;4.10;;;9.30;1.00;;;;;;5110057;28;20823;-65
2022/02/08 19:49:34;;;;;;;6.17;4.57;;;9.20;1.00;;;;;;5110817;28;20431;-65
2022/02/08 19:52:00;;;;;;;4.50;4.10;;;;;;;;;;5092104;28;20564;-65
2022/02/08 19:54:29;;;;;;;4.10;3.63;;;;;;;;;;5102046;28;20427;-66
2022/02/08 19:57:30;;;;;;;5.57;4.73;;;9.10;1.00;;;;;;5105013;28;20487;-66
2022/02/08 19:59:50;;;;;;;5.57;5.00;;;;;;;;;;5100506;28;20427;-66
2022/02/08 20:02:17;;;;;;;4.83;4.33;;;9.30;1.00;;;;;;5075367;28;20473;-66
2022/02/08 20:04:48;;;;;;;5.50;4.93;;;9.30;1.00;;;;;;5085378;28;20443;-66
2022/02/08 20:07:14;;;;;;;6.70;4.40;;;9.40;1.00;;;;;;5109783;28;20496;-66
2022/02/08 20:09:41;;;;;;;5.80;4.60;;;9.50;1.00;;;;;;5095438;28;20436;-66
2022/02/08 20:12:07;;;;;;;5.37;3.77;;;;;;;;;;5088387;28;20451;-65
2022/02/08 20:14:33;;;;;;;7.43;4.50;;;9.50;1.00;;;;;;5080055;28;20444;-66
2022/02/08 20:16:59;;;;;;;5.27;4.50;;;9.40;1.00;;;;;;5098375;28;20448;-66
2022/02/08 20:19:26;;;;;;;6.03;4.87;;;9.40;1.00;;;;;;5097745;28;20264;-67
2022/02/08 20:22:00;;;;;;;7.17;5.00;;;9.50;1.00;;;;;;5098318;28;20463;-65
2022/02/08 20:24:26;;;;;;;4.50;4.10;;;9.50;1.00;;;;;;5102432;28;20820;-67
2022/02/08 20:29:36;;;;;;;5.03;4.43;;;;;;;;;;5101679;28;20185;-66
2022/02/08 20:32:03;;;;;;;4.63;4.23;;;9.30;1.00;;;;;;5108405;28;20452;-65
2022/02/08 20:34:30;;;;;;;5.53;4.90;;;9.30;1.00;;;;;;5092532;28;20453;-65
2022/02/08 20:36:58;;;;;;;5.97;4.90;;;9.30;1.00;;;;;;5097366;28;20785;-69
2022/02/08 20:39:25;;;;;;;8.27;4.77;;;9.30;1.00;;;;;;5092611;28;20446;-66
2022/02/08 20:41:51;;;;;;;6.33;4.80;;;9.30;1.00;;;;;;5092244;28;20456;-66
2022/02/08 20:44:18;;;;;;;5.60;5.00;;;9.30;1.00;;;;;;5090140;28;20494;-67
2022/02/08 20:46:52;;;;;;;5.60;4.27;;;9.20;1.00;;;;;;5074377;28;20428;-67
2022/02/08 20:49:18;;;;;;;5.03;4.63;;;9.30;1.00;;;;;;5093904;28;20432;-67
2022/02/08 20:51:45;;;;;;;5.93;4.63;;;9.30;1.00;;;;;;5090040;28;20576;-67
2022/02/08 20:54:13;;;;;;;4.93;4.20;;;9.30;1.00;;;;;;5103435;28;20423;-67
2022/02/08 20:56:40;;;;;;;4.97;4.00;;;9.40;1.00;;;;;;5091195;28;20436;-66
2022/02/08 20:59:11;;;;;;;5.53;3.90;;;9.40;1.00;;;;;;5082993;28;20891;-66
2022/02/08 21:01:43;;;;;;;5.03;4.53;;;9.40;1.00;;;;;;5092760;28;20472;-66
2022/02/08 21:06:50;;;;;;;6.87;4.23;;;9.50;1.00;;;;;;5090356;28;20415;-67
2022/02/08 21:09:22;;;;;;;4.87;3.60;;;9.50;1.00;;;;;;5090609;28;20456;-66
2022/02/08 21:11:52;;;;;;;6.00;4.33;;;9.50;1.00;;;;;;5093392;28;20474;-66
2022/02/08 21:14:18;;;;;;;5.00;4.60;;;9.50;1.00;;;;;;5098538;28;20444;-66
2022/02/08 21:16:54;;;;;;;4.77;3.73;;;9.40;1.00;;;;;;5086333;28;20526;-66
2022/02/08 21:19:28;;;;;;;4.77;4.37;;;9.40;1.00;;;;;;5100474;28;20448;-66
2022/02/08 21:21:55;;;;;;;4.20;3.50;;;9.50;1.00;;;;;;5093333;28;21113;-67
2022/02/08 21:24:22;;;;;;;5.40;3.87;;;9.50;1.00;;;;;;5097439;28;20462;-69
2022/02/08 21:26:55;;;;;;;4.20;3.83;;;9.50;1.00;;;;;;5105139;28;20439;-67